UAL591 KEWR-KSAT
Flight info
| Callsign | UAL591 |
|---|---|
| Flight time | 3h 4m |
| Altitude | 40000 |
| Route | PARKE J6 LRP/N0459F320 J6 MRB/N0475F400 J6 HVQ Q68 LITTR WINDU QERVO1 |
| Aircraft | B772/H-SDE2E3FGHIJ5LORVWXY/LB1D1 |
Departure
| Time | 2026-04-26 10:52 |
|---|---|
| Airport | Newark Liberty International Airport (KEWR) |
Arrival
| Time | 2026-04-26 13:57 |
|---|---|
| Airport | San Antonio International Airport (KSAT) |
| Time | Latitude | Longitude | Altitude | Speed | Heading |
|---|---|---|---|---|---|
| 2026-04-26 10:48 | 40.68617 | -74.17422 | 30 ft | 25 kts | 205° |
| 2026-04-26 10:48 | 40.68457 | -74.17523 | 27 ft | 25 kts | 205° |
| 2026-04-26 10:48 | 40.68301 | -74.17621 | 24 ft | 25 kts | 206° |
| 2026-04-26 10:49 | 40.68143 | -74.17722 | 25 ft | 25 kts | 206° |
| 2026-04-26 10:49 | 40.67986 | -74.17822 | 23 ft | 25 kts | 206° |
| 2026-04-26 10:49 | 40.67828 | -74.17923 | 30 ft | 25 kts | 206° |
| 2026-04-26 10:49 | 40.67700 | -74.18004 | 28 ft | 6 kts | 206° |
| 2026-04-26 10:50 | 40.67665 | -74.18026 | 26 ft | 6 kts | 206° |
| 2026-04-26 10:50 | 40.67641 | -74.18042 | 29 ft | 6 kts | 206° |
| 2026-04-26 10:50 | 40.67609 | -74.18039 | 26 ft | 7 kts | 158° |
| 2026-04-26 10:50 | 40.67579 | -74.18006 | 25 ft | 0 kts | 126° |
| 2026-04-26 10:51 | 40.67573 | -74.17934 | 29 ft | 11 kts | 56° |
| 2026-04-26 10:51 | 40.67647 | -74.17873 | 24 ft | 0 kts | 25° |
| 2026-04-26 10:52 | 40.67667 | -74.17860 | 26 ft | 20 kts | 25° |
| 2026-04-26 10:52 | 40.68113 | -74.17580 | 26 ft | 120 kts | 26° |
| 2026-04-26 10:52 | 40.69074 | -74.16967 | 428 ft | 166 kts | 27° |
| 2026-04-26 10:52 | 40.70100 | -74.16285 | 1815 ft | 165 kts | 33° |
| 2026-04-26 10:53 | 40.71163 | -74.15554 | 2590 ft | 184 kts | 33° |
| 2026-04-26 10:53 | 40.72347 | -74.14714 | 3314 ft | 199 kts | 32° |
| 2026-04-26 10:53 | 40.73627 | -74.13822 | 3965 ft | 216 kts | 30° |
| 2026-04-26 10:54 | 40.76662 | -74.12180 | 5129 ft | 248 kts | 1° |
| 2026-04-26 10:54 | 40.78310 | -74.12639 | 6226 ft | 239 kts | 329° |
| 2026-04-26 10:54 | 40.79440 | -74.14086 | 7412 ft | 223 kts | 295° |
| 2026-04-26 10:54 | 40.79667 | -74.16105 | 8257 ft | 231 kts | 263° |
| 2026-04-26 10:55 | 40.79428 | -74.18185 | 9030 ft | 233 kts | 266° |
| 2026-04-26 10:55 | 40.79229 | -74.20396 | 9494 ft | 256 kts | 267° |
| 2026-04-26 10:55 | 40.79003 | -74.22795 | 10127 ft | 269 kts | 266° |
| 2026-04-26 10:55 | 40.78745 | -74.25322 | 10546 ft | 290 kts | 265° |
| 2026-04-26 10:56 | 40.78448 | -74.28083 | 10756 ft | 319 kts | 265° |
| 2026-04-26 10:56 | 40.78112 | -74.31015 | 11342 ft | 333 kts | 264° |
| 2026-04-26 10:56 | 40.77748 | -74.34057 | 12200 ft | 339 kts | 264° |
| 2026-04-26 10:56 | 40.77368 | -74.37152 | 13172 ft | 343 kts | 264° |
| 2026-04-26 10:57 | 40.76979 | -74.40267 | 14131 ft | 346 kts | 264° |
| 2026-04-26 10:57 | 40.76584 | -74.43411 | 14973 ft | 350 kts | 264° |
| 2026-04-26 10:57 | 40.76182 | -74.46601 | 15782 ft | 355 kts | 264° |
| 2026-04-26 10:57 | 40.75773 | -74.49832 | 16594 ft | 359 kts | 264° |
| 2026-04-26 10:58 | 40.75359 | -74.53096 | 17391 ft | 363 kts | 264° |
| 2026-04-26 10:58 | 40.74938 | -74.56401 | 18173 ft | 367 kts | 264° |
| 2026-04-26 10:58 | 40.74513 | -74.59738 | 18842 ft | 371 kts | 264° |
| 2026-04-26 10:58 | 40.74082 | -74.63106 | 19517 ft | 374 kts | 264° |
| 2026-04-26 10:59 | 40.73648 | -74.66494 | 20185 ft | 377 kts | 265° |
| 2026-04-26 10:59 | 40.73209 | -74.69917 | 20828 ft | 380 kts | 265° |
| 2026-04-26 10:59 | 40.72766 | -74.73362 | 21447 ft | 383 kts | 265° |
| 2026-04-26 10:59 | 40.72317 | -74.76845 | 22054 ft | 387 kts | 265° |
| 2026-04-26 11:00 | 40.71862 | -74.80361 | 22660 ft | 391 kts | 265° |
| 2026-04-26 11:00 | 40.71403 | -74.83908 | 23259 ft | 395 kts | 265° |
| 2026-04-26 11:00 | 40.70936 | -74.87494 | 23806 ft | 399 kts | 265° |
| 2026-04-26 11:00 | 40.70465 | -74.91110 | 24338 ft | 401 kts | 265° |
| 2026-04-26 11:01 | 40.69990 | -74.94738 | 24926 ft | 402 kts | 265° |
| 2026-04-26 11:01 | 40.69514 | -74.98373 | 25499 ft | 404 kts | 265° |
| 2026-04-26 11:01 | 40.69029 | -75.02023 | 26044 ft | 406 kts | 264° |
| 2026-04-26 11:01 | 40.68309 | -75.05657 | 26556 ft | 414 kts | 257° |
| 2026-04-26 11:02 | 40.67287 | -75.09229 | 27076 ft | 420 kts | 253° |
| 2026-04-26 11:02 | 40.66026 | -75.12721 | 27580 ft | 426 kts | 247° |
| 2026-04-26 11:02 | 40.64516 | -75.16105 | 28096 ft | 430 kts | 245° |
| 2026-04-26 11:02 | 40.62949 | -75.19482 | 28567 ft | 434 kts | 245° |
| 2026-04-26 11:03 | 40.61390 | -75.22827 | 29065 ft | 436 kts | 245° |
| 2026-04-26 11:03 | 40.59788 | -75.26285 | 29558 ft | 438 kts | 245° |
| 2026-04-26 11:03 | 40.58229 | -75.29679 | 29988 ft | 441 kts | 245° |
| 2026-04-26 11:03 | 40.56640 | -75.33147 | 30398 ft | 444 kts | 245° |
| 2026-04-26 11:04 | 40.55044 | -75.36632 | 30798 ft | 446 kts | 245° |
| 2026-04-26 11:04 | 40.53440 | -75.40128 | 31177 ft | 447 kts | 245° |
| 2026-04-26 11:04 | 40.51831 | -75.43635 | 31541 ft | 449 kts | 245° |
| 2026-04-26 11:04 | 40.50211 | -75.47159 | 31851 ft | 452 kts | 245° |
| 2026-04-26 11:05 | 40.48578 | -75.50707 | 32140 ft | 454 kts | 245° |
| 2026-04-26 11:05 | 40.46940 | -75.54263 | 32434 ft | 456 kts | 245° |
| 2026-04-26 11:05 | 40.45295 | -75.57832 | 32755 ft | 457 kts | 245° |
| 2026-04-26 11:05 | 40.43648 | -75.61397 | 33160 ft | 456 kts | 245° |
| 2026-04-26 11:06 | 40.42006 | -75.64947 | 33619 ft | 454 kts | 245° |
| 2026-04-26 11:06 | 40.40375 | -75.68475 | 34107 ft | 451 kts | 245° |
| 2026-04-26 11:06 | 40.38754 | -75.71986 | 34516 ft | 449 kts | 245° |
| 2026-04-26 11:06 | 40.37138 | -75.75485 | 34854 ft | 449 kts | 245° |
| 2026-04-26 11:07 | 40.35520 | -75.78985 | 35181 ft | 448 kts | 245° |
| 2026-04-26 11:07 | 40.33905 | -75.82470 | 35534 ft | 447 kts | 245° |
| 2026-04-26 11:07 | 40.32289 | -75.85942 | 35896 ft | 446 kts | 245° |
| 2026-04-26 11:07 | 40.30672 | -75.89400 | 36258 ft | 444 kts | 245° |
| 2026-04-26 11:08 | 40.29058 | -75.92844 | 36608 ft | 443 kts | 245° |
| 2026-04-26 11:08 | 40.27446 | -75.96284 | 36957 ft | 442 kts | 245° |
| 2026-04-26 11:08 | 40.25838 | -75.99711 | 37287 ft | 441 kts | 245° |
| 2026-04-26 11:08 | 40.24234 | -76.03131 | 37624 ft | 440 kts | 245° |
| 2026-04-26 11:09 | 40.22636 | -76.06533 | 37955 ft | 439 kts | 245° |
| 2026-04-26 11:09 | 40.21038 | -76.09933 | 38260 ft | 438 kts | 245° |
| 2026-04-26 11:09 | 40.19443 | -76.13324 | 38578 ft | 437 kts | 245° |
| 2026-04-26 11:09 | 40.17850 | -76.16706 | 38871 ft | 436 kts | 245° |
| 2026-04-26 11:10 | 40.16258 | -76.20082 | 39055 ft | 437 kts | 245° |
| 2026-04-26 11:10 | 40.14684 | -76.23420 | 39204 ft | 438 kts | 244° |
| 2026-04-26 11:10 | 40.13084 | -76.26808 | 39361 ft | 439 kts | 244° |
| 2026-04-26 11:10 | 40.11481 | -76.30202 | 39537 ft | 439 kts | 244° |
| 2026-04-26 11:11 | 40.09900 | -76.33614 | 39712 ft | 439 kts | 245° |
| 2026-04-26 11:11 | 40.08331 | -76.37035 | 39869 ft | 439 kts | 245° |
| 2026-04-26 11:11 | 40.06761 | -76.40461 | 40001 ft | 441 kts | 244° |
| 2026-04-26 11:11 | 40.05178 | -76.43905 | 40055 ft | 444 kts | 244° |
| 2026-04-26 11:12 | 40.01979 | -76.50823 | 40108 ft | 446 kts | 244° |
| 2026-04-26 11:12 | 39.98785 | -76.57714 | 40105 ft | 440 kts | 244° |
| 2026-04-26 11:13 | 39.95628 | -76.64523 | 40109 ft | 437 kts | 244° |
| 2026-04-26 11:13 | 39.92484 | -76.71289 | 40118 ft | 436 kts | 244° |
| 2026-04-26 11:14 | 39.89335 | -76.78029 | 40120 ft | 436 kts | 244° |
| 2026-04-26 11:14 | 39.86713 | -76.83629 | 40120 ft | 436 kts | 244° |
| 2026-04-26 11:15 | 39.83009 | -76.91525 | 40123 ft | 438 kts | 244° |
| 2026-04-26 11:15 | 39.79826 | -76.98301 | 40119 ft | 440 kts | 243° |
| 2026-04-26 11:16 | 39.76628 | -77.05092 | 40112 ft | 441 kts | 243° |
| 2026-04-26 11:16 | 39.73417 | -77.11894 | 40112 ft | 442 kts | 243° |
| 2026-04-26 11:17 | 39.70197 | -77.18704 | 40108 ft | 443 kts | 243° |
| 2026-04-26 11:17 | 39.66970 | -77.25510 | 40104 ft | 443 kts | 243° |
| 2026-04-26 11:18 | 39.63740 | -77.32311 | 40122 ft | 442 kts | 243° |
| 2026-04-26 11:18 | 39.60532 | -77.39054 | 40129 ft | 442 kts | 243° |
| 2026-04-26 11:19 | 39.57302 | -77.45830 | 40131 ft | 441 kts | 243° |
| 2026-04-26 11:19 | 39.54072 | -77.52594 | 40153 ft | 441 kts | 243° |
| 2026-04-26 11:20 | 39.51367 | -77.58249 | 40123 ft | 441 kts | 243° |
| 2026-04-26 11:20 | 39.47610 | -77.66083 | 40127 ft | 440 kts | 242° |
| 2026-04-26 11:21 | 39.44375 | -77.72814 | 40114 ft | 440 kts | 242° |
| 2026-04-26 11:21 | 39.41140 | -77.79535 | 40116 ft | 440 kts | 242° |
| 2026-04-26 11:22 | 39.37970 | -77.86291 | 40117 ft | 438 kts | 246° |
| 2026-04-26 11:22 | 39.35190 | -77.93276 | 40117 ft | 437 kts | 247° |
| 2026-04-26 11:23 | 39.32435 | -78.00277 | 40119 ft | 437 kts | 246° |
| 2026-04-26 11:23 | 39.29662 | -78.07271 | 40116 ft | 438 kts | 246° |
| 2026-04-26 11:24 | 39.26875 | -78.14256 | 40110 ft | 438 kts | 246° |
| 2026-04-26 11:24 | 39.24078 | -78.21245 | 40112 ft | 438 kts | 246° |
| 2026-04-26 11:25 | 39.21277 | -78.28226 | 40110 ft | 439 kts | 246° |
| 2026-04-26 11:25 | 39.18468 | -78.35211 | 40101 ft | 439 kts | 246° |
| 2026-04-26 11:26 | 39.15657 | -78.42186 | 40125 ft | 438 kts | 246° |
| 2026-04-26 11:26 | 39.12840 | -78.49161 | 40098 ft | 439 kts | 245° |
| 2026-04-26 11:27 | 39.10016 | -78.56139 | 40111 ft | 439 kts | 245° |
| 2026-04-26 11:27 | 39.07664 | -78.61938 | 40097 ft | 440 kts | 245° |
| 2026-04-26 11:28 | 39.04829 | -78.68912 | 40097 ft | 440 kts | 245° |
| 2026-04-26 11:28 | 39.01956 | -78.75969 | 40162 ft | 450 kts | 244° |
| 2026-04-26 11:29 | 38.99022 | -78.83154 | 40107 ft | 455 kts | 244° |
| 2026-04-26 11:29 | 38.96067 | -78.90374 | 40097 ft | 457 kts | 244° |
| 2026-04-26 11:30 | 38.93101 | -78.97601 | 40095 ft | 457 kts | 244° |
| 2026-04-26 11:30 | 38.90137 | -79.04814 | 40075 ft | 456 kts | 244° |
| 2026-04-26 11:31 | 38.87178 | -79.12002 | 40080 ft | 455 kts | 244° |
| 2026-04-26 11:31 | 38.84419 | -79.19282 | 40070 ft | 452 kts | 250° |
| 2026-04-26 11:32 | 38.82620 | -79.26969 | 40066 ft | 449 kts | 258° |
| 2026-04-26 11:32 | 38.81251 | -79.34781 | 40058 ft | 449 kts | 258° |
| 2026-04-26 11:33 | 38.79877 | -79.42588 | 40047 ft | 449 kts | 258° |
| 2026-04-26 11:33 | 38.78477 | -79.50381 | 40054 ft | 449 kts | 258° |
| 2026-04-26 11:34 | 38.77059 | -79.58185 | 40047 ft | 450 kts | 258° |
| 2026-04-26 11:34 | 38.75634 | -79.65994 | 40053 ft | 451 kts | 258° |
| 2026-04-26 11:35 | 38.74202 | -79.73817 | 40050 ft | 451 kts | 258° |
| 2026-04-26 11:35 | 38.72762 | -79.81647 | 40054 ft | 452 kts | 258° |
| 2026-04-26 11:36 | 38.71315 | -79.89490 | 40054 ft | 453 kts | 258° |
| 2026-04-26 11:36 | 38.69861 | -79.97340 | 40049 ft | 454 kts | 258° |
| 2026-04-26 11:37 | 38.68398 | -80.05204 | 40047 ft | 454 kts | 257° |
| 2026-04-26 11:37 | 38.66931 | -80.13064 | 40046 ft | 454 kts | 257° |
| 2026-04-26 11:38 | 38.65456 | -80.20928 | 40045 ft | 454 kts | 257° |
| 2026-04-26 11:38 | 38.63985 | -80.28736 | 40042 ft | 455 kts | 257° |
| 2026-04-26 11:39 | 38.62501 | -80.36595 | 40041 ft | 455 kts | 257° |
| 2026-04-26 11:39 | 38.61011 | -80.44453 | 40041 ft | 455 kts | 257° |
| 2026-04-26 11:40 | 38.59516 | -80.52306 | 40045 ft | 455 kts | 257° |
| 2026-04-26 11:40 | 38.58016 | -80.60158 | 40048 ft | 454 kts | 257° |
| 2026-04-26 11:42 | 38.51975 | -80.91473 | 40053 ft | 453 kts | 257° |
| 2026-04-26 11:43 | 38.50454 | -80.99284 | 40044 ft | 453 kts | 257° |
| 2026-04-26 11:43 | 38.48926 | -81.07098 | 40049 ft | 454 kts | 257° |
| 2026-04-26 11:44 | 38.47403 | -81.14856 | 40049 ft | 454 kts | 257° |
| 2026-04-26 11:44 | 38.45864 | -81.22668 | 40051 ft | 454 kts | 257° |
| 2026-04-26 11:45 | 38.44320 | -81.30475 | 40051 ft | 454 kts | 257° |
| 2026-04-26 11:45 | 38.42769 | -81.38285 | 40064 ft | 454 kts | 257° |
| 2026-04-26 11:46 | 38.41214 | -81.46089 | 40066 ft | 454 kts | 257° |
| 2026-04-26 11:46 | 38.39654 | -81.53891 | 40063 ft | 454 kts | 257° |
| 2026-04-26 11:47 | 38.38089 | -81.61690 | 40060 ft | 454 kts | 257° |
| 2026-04-26 11:47 | 38.36520 | -81.69483 | 40065 ft | 454 kts | 257° |
| 2026-04-26 11:48 | 38.34921 | -81.77263 | 40055 ft | 454 kts | 255° |
| 2026-04-26 11:48 | 38.32850 | -81.84857 | 40066 ft | 454 kts | 252° |
| 2026-04-26 11:49 | 38.30685 | -81.92417 | 40061 ft | 454 kts | 252° |
| 2026-04-26 11:49 | 38.28535 | -81.99976 | 40053 ft | 454 kts | 252° |
| 2026-04-26 11:50 | 38.26396 | -82.07538 | 40049 ft | 454 kts | 252° |
| 2026-04-26 11:50 | 38.24256 | -82.15093 | 40049 ft | 454 kts | 252° |
| 2026-04-26 11:51 | 38.22111 | -82.22639 | 40051 ft | 454 kts | 252° |
| 2026-04-26 11:51 | 38.19962 | -82.30179 | 40058 ft | 454 kts | 252° |
| 2026-04-26 11:52 | 38.18173 | -82.36444 | 40058 ft | 453 kts | 252° |
| 2026-04-26 11:52 | 38.15673 | -82.45197 | 40062 ft | 453 kts | 252° |
| 2026-04-26 11:53 | 38.13518 | -82.52726 | 40060 ft | 453 kts | 252° |
| 2026-04-26 11:54 | 38.10277 | -82.64007 | 40053 ft | 453 kts | 252° |
| 2026-04-26 11:54 | 38.08110 | -82.71526 | 40056 ft | 453 kts | 252° |
| 2026-04-26 11:55 | 38.05939 | -82.79037 | 40051 ft | 453 kts | 252° |
| 2026-04-26 11:55 | 38.03762 | -82.86546 | 40052 ft | 453 kts | 252° |
| 2026-04-26 11:56 | 38.01581 | -82.94046 | 40053 ft | 453 kts | 252° |
| 2026-04-26 11:56 | 37.99395 | -83.01546 | 40049 ft | 453 kts | 252° |
| 2026-04-26 11:57 | 37.97204 | -83.09041 | 40054 ft | 453 kts | 252° |
| 2026-04-26 11:57 | 37.95009 | -83.16528 | 40053 ft | 453 kts | 252° |
| 2026-04-26 11:58 | 37.92811 | -83.24005 | 40056 ft | 453 kts | 252° |
| 2026-04-26 11:58 | 37.90609 | -83.31475 | 40056 ft | 453 kts | 252° |
| 2026-04-26 11:59 | 37.88405 | -83.38933 | 40058 ft | 452 kts | 252° |
| 2026-04-26 11:59 | 37.86198 | -83.46381 | 40062 ft | 452 kts | 252° |
| 2026-04-26 12:00 | 37.84003 | -83.53769 | 40058 ft | 451 kts | 252° |
| 2026-04-26 12:00 | 37.81790 | -83.61196 | 40056 ft | 451 kts | 252° |
| 2026-04-26 12:01 | 37.79573 | -83.68616 | 40055 ft | 451 kts | 252° |
| 2026-04-26 12:01 | 37.77352 | -83.76028 | 40050 ft | 451 kts | 252° |
| 2026-04-26 12:02 | 37.75131 | -83.83425 | 40051 ft | 450 kts | 252° |
| 2026-04-26 12:02 | 37.72904 | -83.90817 | 40051 ft | 450 kts | 252° |
| 2026-04-26 12:03 | 37.70676 | -83.98197 | 40060 ft | 449 kts | 252° |
| 2026-04-26 12:03 | 37.68445 | -84.05565 | 40060 ft | 449 kts | 252° |
| 2026-04-26 12:04 | 37.66213 | -84.12922 | 40071 ft | 449 kts | 252° |
| 2026-04-26 12:04 | 37.63972 | -84.20269 | 40082 ft | 448 kts | 252° |
| 2026-04-26 12:05 | 37.61718 | -84.27606 | 40082 ft | 448 kts | 252° |
| 2026-04-26 12:05 | 37.59463 | -84.34931 | 40080 ft | 448 kts | 252° |
| 2026-04-26 12:06 | 37.57207 | -84.42245 | 40081 ft | 447 kts | 252° |
| 2026-04-26 12:06 | 37.54949 | -84.49550 | 40073 ft | 447 kts | 253° |
| 2026-04-26 12:07 | 37.52688 | -84.56847 | 40079 ft | 447 kts | 253° |
| 2026-04-26 12:07 | 37.50425 | -84.64131 | 40085 ft | 446 kts | 253° |
| 2026-04-26 12:08 | 37.48160 | -84.71404 | 40090 ft | 446 kts | 253° |
| 2026-04-26 12:08 | 37.45912 | -84.78675 | 40079 ft | 446 kts | 253° |
| 2026-04-26 12:09 | 37.43676 | -84.85943 | 40067 ft | 445 kts | 253° |
| 2026-04-26 12:09 | 37.41451 | -84.93146 | 40067 ft | 444 kts | 253° |
| 2026-04-26 12:10 | 37.39208 | -85.00384 | 40067 ft | 444 kts | 253° |
| 2026-04-26 12:10 | 37.36950 | -85.07601 | 40076 ft | 444 kts | 253° |
| 2026-04-26 12:11 | 37.34675 | -85.14803 | 40089 ft | 443 kts | 253° |
| 2026-04-26 12:11 | 37.32403 | -85.21987 | 40099 ft | 442 kts | 253° |
| 2026-04-26 12:12 | 37.30131 | -85.29160 | 40099 ft | 441 kts | 253° |
| 2026-04-26 12:12 | 37.27862 | -85.36306 | 40099 ft | 440 kts | 253° |
| 2026-04-26 12:13 | 37.25594 | -85.43434 | 40086 ft | 439 kts | 253° |
| 2026-04-26 12:13 | 37.23327 | -85.50542 | 40070 ft | 438 kts | 253° |
| 2026-04-26 12:14 | 37.21061 | -85.57629 | 40049 ft | 437 kts | 253° |
| 2026-04-26 12:14 | 37.18795 | -85.64697 | 40033 ft | 436 kts | 253° |
| 2026-04-26 12:15 | 37.16531 | -85.71745 | 40037 ft | 435 kts | 253° |
| 2026-04-26 12:15 | 37.14267 | -85.78772 | 40042 ft | 435 kts | 253° |
| 2026-04-26 12:16 | 37.12003 | -85.85787 | 40052 ft | 434 kts | 253° |
| 2026-04-26 12:16 | 37.09751 | -85.92744 | 40056 ft | 434 kts | 253° |
| 2026-04-26 12:17 | 37.07482 | -85.99738 | 40053 ft | 433 kts | 253° |
| 2026-04-26 12:17 | 37.05209 | -86.06726 | 40053 ft | 433 kts | 253° |
| 2026-04-26 12:18 | 37.03303 | -86.12576 | 40048 ft | 433 kts | 253° |
| 2026-04-26 12:18 | 37.01024 | -86.19551 | 40025 ft | 433 kts | 253° |
| 2026-04-26 12:19 | 36.98743 | -86.26521 | 40030 ft | 433 kts | 253° |
| 2026-04-26 12:19 | 36.96460 | -86.33479 | 40034 ft | 433 kts | 253° |
| 2026-04-26 12:20 | 36.94189 | -86.40385 | 40037 ft | 432 kts | 253° |
| 2026-04-26 12:20 | 36.91867 | -86.47317 | 40034 ft | 433 kts | 252° |
| 2026-04-26 12:21 | 36.89399 | -86.54171 | 40031 ft | 433 kts | 252° |
| 2026-04-26 12:21 | 36.86911 | -86.61003 | 40023 ft | 432 kts | 252° |
| 2026-04-26 12:22 | 36.84439 | -86.67829 | 40011 ft | 431 kts | 252° |
| 2026-04-26 12:22 | 36.81977 | -86.74641 | 40003 ft | 430 kts | 252° |
| 2026-04-26 12:23 | 36.79519 | -86.81435 | 39993 ft | 429 kts | 252° |
| 2026-04-26 12:23 | 36.77062 | -86.88210 | 39990 ft | 428 kts | 252° |
| 2026-04-26 12:24 | 36.74606 | -86.94967 | 39991 ft | 427 kts | 252° |
| 2026-04-26 12:24 | 36.72154 | -87.01699 | 39991 ft | 426 kts | 252° |
| 2026-04-26 12:25 | 36.68476 | -87.11767 | 39998 ft | 425 kts | 252° |
| 2026-04-26 12:25 | 36.66027 | -87.18455 | 40009 ft | 424 kts | 252° |
| 2026-04-26 12:26 | 36.63576 | -87.25136 | 40010 ft | 424 kts | 252° |
| 2026-04-26 12:26 | 36.61125 | -87.31801 | 40010 ft | 423 kts | 252° |
| 2026-04-26 12:27 | 36.58672 | -87.38452 | 40011 ft | 423 kts | 252° |
| 2026-04-26 12:27 | 36.56220 | -87.45091 | 40013 ft | 422 kts | 252° |
| 2026-04-26 12:28 | 36.53769 | -87.51718 | 40020 ft | 422 kts | 252° |
| 2026-04-26 12:28 | 36.51316 | -87.58334 | 40017 ft | 421 kts | 252° |
| 2026-04-26 12:29 | 36.48881 | -87.64889 | 40013 ft | 420 kts | 252° |
| 2026-04-26 12:30 | 36.45190 | -87.74801 | 40007 ft | 419 kts | 252° |
| 2026-04-26 12:30 | 36.42758 | -87.81313 | 40000 ft | 418 kts | 252° |
| 2026-04-26 12:31 | 36.39089 | -87.91115 | 39996 ft | 417 kts | 252° |
| 2026-04-26 12:31 | 36.36644 | -87.97631 | 39992 ft | 416 kts | 252° |
| 2026-04-26 12:32 | 36.34199 | -88.04131 | 39986 ft | 415 kts | 252° |
| 2026-04-26 12:33 | 36.30534 | -88.13851 | 39984 ft | 414 kts | 252° |
| 2026-04-26 12:33 | 36.28090 | -88.20318 | 39981 ft | 414 kts | 252° |
| 2026-04-26 12:34 | 36.25647 | -88.26767 | 39985 ft | 413 kts | 252° |
| 2026-04-26 12:34 | 36.23202 | -88.33208 | 39976 ft | 413 kts | 251° |
| 2026-04-26 12:35 | 36.20758 | -88.39634 | 39983 ft | 412 kts | 251° |
| 2026-04-26 12:35 | 36.18312 | -88.46055 | 39976 ft | 412 kts | 251° |
| 2026-04-26 12:36 | 36.15861 | -88.52478 | 39965 ft | 413 kts | 251° |
| 2026-04-26 12:36 | 36.13405 | -88.58893 | 39978 ft | 412 kts | 251° |
| 2026-04-26 12:37 | 36.10943 | -88.65298 | 39970 ft | 412 kts | 251° |
| 2026-04-26 12:37 | 36.08479 | -88.71699 | 39967 ft | 412 kts | 251° |
| 2026-04-26 12:38 | 36.06013 | -88.78095 | 39973 ft | 412 kts | 251° |
| 2026-04-26 12:38 | 36.03549 | -88.84475 | 39965 ft | 411 kts | 251° |
| 2026-04-26 12:39 | 36.01084 | -88.90845 | 39958 ft | 411 kts | 251° |
| 2026-04-26 12:39 | 35.98619 | -88.97200 | 39957 ft | 410 kts | 251° |
| 2026-04-26 12:40 | 35.96157 | -89.03537 | 39956 ft | 409 kts | 251° |
| 2026-04-26 12:40 | 35.93695 | -89.09861 | 39960 ft | 408 kts | 251° |
| 2026-04-26 12:41 | 35.91237 | -89.16165 | 39960 ft | 407 kts | 251° |
| 2026-04-26 12:41 | 35.88779 | -89.22454 | 39964 ft | 407 kts | 251° |
| 2026-04-26 12:42 | 35.86337 | -89.28689 | 39965 ft | 406 kts | 251° |
| 2026-04-26 12:42 | 35.83880 | -89.34955 | 39965 ft | 406 kts | 251° |
| 2026-04-26 12:43 | 35.81420 | -89.41213 | 39958 ft | 406 kts | 251° |
| 2026-04-26 12:43 | 35.78959 | -89.47460 | 39959 ft | 405 kts | 251° |
| 2026-04-26 12:44 | 35.76494 | -89.53709 | 39947 ft | 405 kts | 251° |
| 2026-04-26 12:44 | 35.74029 | -89.59942 | 39941 ft | 405 kts | 251° |
| 2026-04-26 12:45 | 35.71558 | -89.66180 | 39939 ft | 405 kts | 251° |
| 2026-04-26 12:45 | 35.69085 | -89.72411 | 39938 ft | 405 kts | 250° |
| 2026-04-26 12:46 | 35.66611 | -89.78632 | 39942 ft | 405 kts | 250° |
| 2026-04-26 12:46 | 35.64135 | -89.84848 | 39941 ft | 405 kts | 250° |
| 2026-04-26 12:47 | 35.61654 | -89.91062 | 39932 ft | 405 kts | 250° |
| 2026-04-26 12:47 | 35.59175 | -89.97259 | 39930 ft | 404 kts | 250° |
| 2026-04-26 12:48 | 35.56711 | -90.03409 | 39921 ft | 404 kts | 250° |
| 2026-04-26 12:48 | 35.54229 | -90.09591 | 39918 ft | 403 kts | 250° |
| 2026-04-26 12:49 | 35.51747 | -90.15763 | 39918 ft | 403 kts | 250° |
| 2026-04-26 12:49 | 35.49262 | -90.21930 | 39921 ft | 403 kts | 250° |
| 2026-04-26 12:50 | 35.46773 | -90.28094 | 39918 ft | 403 kts | 250° |
| 2026-04-26 12:50 | 35.44281 | -90.34256 | 39916 ft | 403 kts | 250° |
| 2026-04-26 12:51 | 35.41787 | -90.40411 | 39923 ft | 403 kts | 250° |
| 2026-04-26 12:51 | 35.39288 | -90.46564 | 39917 ft | 403 kts | 250° |
| 2026-04-26 12:52 | 35.36784 | -90.52721 | 39923 ft | 404 kts | 250° |
| 2026-04-26 12:52 | 35.34275 | -90.58879 | 39929 ft | 404 kts | 249° |
| 2026-04-26 12:53 | 35.31759 | -90.65040 | 39939 ft | 405 kts | 249° |
| 2026-04-26 12:53 | 35.29236 | -90.71209 | 39941 ft | 405 kts | 249° |
| 2026-04-26 12:54 | 35.26707 | -90.77381 | 39949 ft | 406 kts | 249° |
| 2026-04-26 12:54 | 35.24170 | -90.83559 | 39947 ft | 407 kts | 249° |
| 2026-04-26 12:55 | 35.21624 | -90.89749 | 39953 ft | 408 kts | 249° |
| 2026-04-26 12:55 | 35.19072 | -90.95941 | 39946 ft | 408 kts | 249° |
| 2026-04-26 12:56 | 35.16513 | -91.02139 | 39945 ft | 409 kts | 249° |
| 2026-04-26 12:56 | 35.13947 | -91.08341 | 39953 ft | 409 kts | 249° |
| 2026-04-26 12:57 | 35.11393 | -91.14505 | 39934 ft | 409 kts | 249° |
| 2026-04-26 12:57 | 35.08820 | -91.20703 | 39937 ft | 409 kts | 249° |
| 2026-04-26 12:58 | 35.04952 | -91.29995 | 39937 ft | 409 kts | 249° |
| 2026-04-26 12:58 | 35.02372 | -91.36182 | 39938 ft | 409 kts | 249° |
| 2026-04-26 12:59 | 34.99791 | -91.42359 | 39936 ft | 409 kts | 249° |
| 2026-04-26 12:59 | 34.97205 | -91.48534 | 39942 ft | 409 kts | 248° |
| 2026-04-26 13:00 | 34.94617 | -91.54706 | 39932 ft | 409 kts | 248° |
| 2026-04-26 13:00 | 34.92025 | -91.60876 | 39930 ft | 409 kts | 248° |
| 2026-04-26 13:01 | 34.89430 | -91.67040 | 39934 ft | 409 kts | 248° |
| 2026-04-26 13:01 | 34.86831 | -91.73203 | 39937 ft | 409 kts | 248° |
| 2026-04-26 13:02 | 34.84226 | -91.79369 | 39930 ft | 409 kts | 248° |
| 2026-04-26 13:02 | 34.81618 | -91.85531 | 39930 ft | 410 kts | 248° |
| 2026-04-26 13:03 | 34.79005 | -91.91694 | 39930 ft | 410 kts | 248° |
| 2026-04-26 13:03 | 34.76387 | -91.97857 | 39927 ft | 410 kts | 248° |
| 2026-04-26 13:04 | 34.73766 | -92.04016 | 39949 ft | 410 kts | 248° |
| 2026-04-26 13:04 | 34.71585 | -92.09137 | 39950 ft | 411 kts | 248° |
| 2026-04-26 13:05 | 34.68954 | -92.15298 | 39951 ft | 411 kts | 247° |
| 2026-04-26 13:05 | 34.65916 | -92.21227 | 39953 ft | 417 kts | 239° |
| 2026-04-26 13:06 | 34.62480 | -92.26900 | 39949 ft | 417 kts | 239° |
| 2026-04-26 13:06 | 34.59045 | -92.32572 | 39940 ft | 417 kts | 239° |
| 2026-04-26 13:07 | 34.55610 | -92.38257 | 39940 ft | 418 kts | 239° |
| 2026-04-26 13:07 | 34.52174 | -92.43946 | 39941 ft | 418 kts | 239° |
| 2026-04-26 13:08 | 34.48735 | -92.49635 | 39948 ft | 419 kts | 239° |
| 2026-04-26 13:08 | 34.45289 | -92.55327 | 39923 ft | 419 kts | 239° |
| 2026-04-26 13:09 | 34.41839 | -92.61016 | 39927 ft | 419 kts | 239° |
| 2026-04-26 13:09 | 34.38383 | -92.66706 | 39919 ft | 420 kts | 239° |
| 2026-04-26 13:10 | 34.34921 | -92.72397 | 39910 ft | 420 kts | 239° |
| 2026-04-26 13:10 | 34.31452 | -92.78089 | 39913 ft | 420 kts | 239° |
| 2026-04-26 13:11 | 34.27976 | -92.83784 | 39917 ft | 421 kts | 239° |
| 2026-04-26 13:11 | 34.24489 | -92.89489 | 39922 ft | 422 kts | 239° |
| 2026-04-26 13:12 | 34.20993 | -92.95200 | 39926 ft | 423 kts | 239° |
| 2026-04-26 13:12 | 34.17489 | -93.00913 | 39935 ft | 424 kts | 239° |
| 2026-04-26 13:13 | 34.13975 | -93.06634 | 39935 ft | 424 kts | 239° |
| 2026-04-26 13:13 | 34.10480 | -93.12315 | 39934 ft | 425 kts | 239° |
| 2026-04-26 13:14 | 34.06931 | -93.18076 | 39936 ft | 425 kts | 239° |
| 2026-04-26 13:14 | 34.03419 | -93.23765 | 39926 ft | 426 kts | 239° |
| 2026-04-26 13:15 | 33.99881 | -93.29490 | 39924 ft | 426 kts | 239° |
| 2026-04-26 13:15 | 33.96339 | -93.35211 | 39921 ft | 427 kts | 239° |
| 2026-04-26 13:16 | 33.92786 | -93.40941 | 39909 ft | 427 kts | 239° |
| 2026-04-26 13:16 | 33.89226 | -93.46674 | 39913 ft | 427 kts | 238° |
| 2026-04-26 13:17 | 33.83880 | -93.55264 | 39905 ft | 428 kts | 238° |
| 2026-04-26 13:18 | 33.78522 | -93.63853 | 39902 ft | 428 kts | 238° |
| 2026-04-26 13:19 | 33.73163 | -93.72425 | 39890 ft | 428 kts | 238° |
| 2026-04-26 13:19 | 33.69587 | -93.78133 | 39895 ft | 427 kts | 238° |
| 2026-04-26 13:20 | 33.66011 | -93.83833 | 39903 ft | 428 kts | 238° |
| 2026-04-26 13:20 | 33.62429 | -93.89533 | 39913 ft | 428 kts | 238° |
| 2026-04-26 13:21 | 33.58847 | -93.95224 | 39924 ft | 428 kts | 238° |
| 2026-04-26 13:21 | 33.55257 | -94.00920 | 39933 ft | 428 kts | 238° |
| 2026-04-26 13:22 | 33.51670 | -94.06600 | 39935 ft | 427 kts | 238° |
| 2026-04-26 13:22 | 33.48080 | -94.12278 | 39928 ft | 427 kts | 238° |
| 2026-04-26 13:23 | 33.44488 | -94.17950 | 39915 ft | 427 kts | 238° |
| 2026-04-26 13:23 | 33.40915 | -94.23582 | 39910 ft | 428 kts | 238° |
| 2026-04-26 13:24 | 33.37316 | -94.29247 | 39901 ft | 428 kts | 238° |
| 2026-04-26 13:24 | 33.33711 | -94.34913 | 39882 ft | 428 kts | 238° |
| 2026-04-26 13:25 | 33.30103 | -94.40574 | 39880 ft | 428 kts | 238° |
| 2026-04-26 13:25 | 33.26495 | -94.46228 | 39879 ft | 428 kts | 238° |
| 2026-04-26 13:26 | 33.22884 | -94.51877 | 39877 ft | 428 kts | 238° |
| 2026-04-26 13:26 | 33.19272 | -94.57518 | 39884 ft | 428 kts | 238° |
| 2026-04-26 13:27 | 33.15657 | -94.63157 | 39897 ft | 427 kts | 238° |
| 2026-04-26 13:27 | 33.12041 | -94.68787 | 39908 ft | 427 kts | 238° |
| 2026-04-26 13:28 | 33.08421 | -94.74417 | 39920 ft | 428 kts | 238° |
| 2026-04-26 13:28 | 33.04795 | -94.80047 | 39927 ft | 428 kts | 238° |
| 2026-04-26 13:29 | 33.01159 | -94.85685 | 39940 ft | 429 kts | 238° |
| 2026-04-26 13:29 | 32.97513 | -94.91329 | 39938 ft | 431 kts | 238° |
| 2026-04-26 13:30 | 32.93853 | -94.96986 | 39926 ft | 432 kts | 239° |
| 2026-04-26 13:30 | 32.90180 | -95.02655 | 39910 ft | 433 kts | 239° |
| 2026-04-26 13:31 | 32.86496 | -95.08329 | 39914 ft | 434 kts | 239° |
| 2026-04-26 13:31 | 32.82806 | -95.14006 | 39916 ft | 434 kts | 239° |
| 2026-04-26 13:32 | 32.79105 | -95.19690 | 39901 ft | 435 kts | 239° |
| 2026-04-26 13:32 | 32.75397 | -95.25376 | 39890 ft | 435 kts | 239° |
| 2026-04-26 13:33 | 32.71689 | -95.31055 | 39891 ft | 435 kts | 239° |
| 2026-04-26 13:33 | 32.67979 | -95.36728 | 39897 ft | 435 kts | 239° |
| 2026-04-26 13:34 | 32.64267 | -95.42395 | 39899 ft | 435 kts | 239° |
| 2026-04-26 13:34 | 32.60578 | -95.48017 | 39899 ft | 434 kts | 240° |
| 2026-04-26 13:35 | 32.56867 | -95.53665 | 39895 ft | 434 kts | 240° |
| 2026-04-26 13:35 | 32.53154 | -95.59309 | 39885 ft | 434 kts | 240° |
| 2026-04-26 13:36 | 32.49444 | -95.64940 | 39895 ft | 433 kts | 240° |
| 2026-04-26 13:36 | 32.45735 | -95.70560 | 39886 ft | 433 kts | 240° |
| 2026-04-26 13:37 | 32.42033 | -95.76160 | 39875 ft | 431 kts | 240° |
| 2026-04-26 13:37 | 32.38337 | -95.81743 | 39863 ft | 430 kts | 240° |
| 2026-04-26 13:38 | 32.34651 | -95.87304 | 39860 ft | 429 kts | 240° |
| 2026-04-26 13:38 | 32.30977 | -95.92838 | 39857 ft | 427 kts | 240° |
| 2026-04-26 13:39 | 32.27312 | -95.98351 | 39860 ft | 426 kts | 240° |
| 2026-04-26 13:39 | 32.20499 | -96.08577 | 39866 ft | 423 kts | 240° |
| 2026-04-26 13:40 | 31.96231 | -96.44787 | 39892 ft | 417 kts | 240° |
| 2026-04-26 13:40 | 31.60368 | -96.97670 | 39865 ft | 412 kts | 239° |
| 2026-04-26 13:41 | 31.52414 | -97.07682 | 39873 ft | 433 kts | 223° |
| 2026-04-26 13:41 | 31.46909 | -97.10880 | 39861 ft | 454 kts | 210° |
| 2026-04-26 13:42 | 31.40902 | -97.13159 | 39858 ft | 458 kts | 208° |
| 2026-04-26 13:42 | 31.34820 | -97.15439 | 39854 ft | 459 kts | 208° |
| 2026-04-26 13:43 | 31.28755 | -97.17789 | 39845 ft | 460 kts | 209° |
| 2026-04-26 13:43 | 31.22684 | -97.20157 | 39856 ft | 460 kts | 209° |
| 2026-04-26 13:44 | 31.10972 | -97.24721 | 38377 ft | 465 kts | 209° |
| 2026-04-26 13:44 | 30.98803 | -97.29450 | 35465 ft | 455 kts | 207° |
| 2026-04-26 13:44 | 30.87020 | -97.34017 | 33238 ft | 438 kts | 207° |
| 2026-04-26 13:44 | 30.75666 | -97.38414 | 31086 ft | 421 kts | 206° |
| 2026-04-26 13:45 | 30.64752 | -97.42631 | 29001 ft | 406 kts | 206° |
| 2026-04-26 13:45 | 30.54182 | -97.46707 | 26802 ft | 395 kts | 205° |
| 2026-04-26 13:45 | 30.43857 | -97.50679 | 24898 ft | 386 kts | 205° |
| 2026-04-26 13:45 | 30.34213 | -97.55414 | 23111 ft | 369 kts | 217° |
| 2026-04-26 13:46 | 30.25532 | -97.61490 | 21206 ft | 361 kts | 217° |
| 2026-04-26 13:46 | 30.17014 | -97.67388 | 19495 ft | 353 kts | 217° |
| 2026-04-26 13:46 | 30.08652 | -97.73156 | 17781 ft | 347 kts | 216° |
| 2026-04-26 13:46 | 30.00407 | -97.78831 | 15945 ft | 342 kts | 216° |
| 2026-04-26 13:47 | 29.92296 | -97.84401 | 14231 ft | 337 kts | 215° |
| 2026-04-26 13:47 | 29.87553 | -97.92749 | 12458 ft | 312 kts | 253° |
| 2026-04-26 13:47 | 29.84528 | -98.02025 | 10780 ft | 306 kts | 251° |
| 2026-04-26 13:47 | 29.81574 | -98.10882 | 9874 ft | 279 kts | 251° |
| 2026-04-26 13:48 | 29.78879 | -98.18972 | 8806 ft | 267 kts | 251° |
| 2026-04-26 13:48 | 29.76251 | -98.26869 | 7650 ft | 261 kts | 250° |
| 2026-04-26 13:48 | 29.73673 | -98.34581 | 6533 ft | 256 kts | 249° |
| 2026-04-26 13:48 | 29.72325 | -98.38685 | 6195 ft | 243 kts | 250° |
| 2026-04-26 13:49 | 29.71747 | -98.40477 | 6070 ft | 236 kts | 250° |
| 2026-04-26 13:49 | 29.71175 | -98.42239 | 5827 ft | 234 kts | 250° |
| 2026-04-26 13:49 | 29.70950 | -98.44020 | 5696 ft | 221 kts | 272° |
| 2026-04-26 13:49 | 29.71028 | -98.45743 | 5563 ft | 212 kts | 271° |
| 2026-04-26 13:50 | 29.71083 | -98.47433 | 5344 ft | 209 kts | 270° |
| 2026-04-26 13:50 | 29.71133 | -98.49073 | 5172 ft | 202 kts | 270° |
| 2026-04-26 13:50 | 29.71185 | -98.50662 | 5050 ft | 195 kts | 270° |
| 2026-04-26 13:50 | 29.71247 | -98.52197 | 5015 ft | 188 kts | 271° |
| 2026-04-26 13:51 | 29.71327 | -98.53731 | 5035 ft | 197 kts | 271° |
| 2026-04-26 13:51 | 29.71404 | -98.55340 | 4902 ft | 205 kts | 271° |
| 2026-04-26 13:51 | 29.71398 | -98.56428 | 4722 ft | 207 kts | 259° |
| 2026-04-26 13:51 | 29.70721 | -98.57860 | 4490 ft | 208 kts | 224° |
| 2026-04-26 13:52 | 29.69304 | -98.59296 | 4390 ft | 205 kts | 222° |
| 2026-04-26 13:52 | 29.68234 | -98.60367 | 4302 ft | 201 kts | 221° |
| 2026-04-26 13:52 | 29.67530 | -98.61070 | 4186 ft | 197 kts | 221° |
| 2026-04-26 13:52 | 29.65982 | -98.61880 | 3961 ft | 186 kts | 179° |
| 2026-04-26 13:53 | 29.64779 | -98.61361 | 3714 ft | 187 kts | 151° |
| 2026-04-26 13:53 | 29.64074 | -98.60778 | 3613 ft | 184 kts | 146° |
| 2026-04-26 13:53 | 29.63119 | -98.59793 | 3328 ft | 184 kts | 139° |
| 2026-04-26 13:53 | 29.62237 | -98.58784 | 2987 ft | 175 kts | 139° |
| 2026-04-26 13:54 | 29.61437 | -98.57797 | 2719 ft | 164 kts | 136° |
| 2026-04-26 13:54 | 29.60670 | -98.56843 | 2662 ft | 156 kts | 137° |
| 2026-04-26 13:54 | 29.59991 | -98.55933 | 2703 ft | 145 kts | 135° |
| 2026-04-26 13:55 | 29.58577 | -98.54168 | 1893 ft | 141 kts | 135° |
| 2026-04-26 13:55 | 29.58146 | -98.53631 | 1732 ft | 137 kts | 135° |
| 2026-04-26 13:55 | 29.56662 | -98.51636 | 1715 ft | 144 kts | 136° |
| 2026-04-26 13:56 | 29.55960 | -98.50757 | 1589 ft | 152 kts | 134° |
| 2026-04-26 13:56 | 29.55283 | -98.49824 | 1332 ft | 147 kts | 133° |
| 2026-04-26 13:56 | 29.54639 | -98.49011 | 1058 ft | 135 kts | 134° |
| 2026-04-26 13:56 | 29.54036 | -98.48240 | 821 ft | 121 kts | 133° |
| 2026-04-26 13:57 | 29.53557 | -98.47630 | 804 ft | 79 kts | 132° |
| 2026-04-26 13:57 | 29.53329 | -98.47341 | 802 ft | 24 kts | 140° |
| 2026-04-26 13:57 | 29.53208 | -98.47284 | 803 ft | 15 kts | 162° |
| 2026-04-26 13:57 | 29.53119 | -98.47247 | 803 ft | 11 kts | 149° |
| 2026-04-26 13:58 | 29.53062 | -98.47225 | 801 ft | 9 kts | 191° |
| 2026-04-26 13:58 | 29.53005 | -98.47258 | 800 ft | 8 kts | 201° |
| 2026-04-26 13:58 | 29.52995 | -98.47258 | 800 ft | 1 kts | 171° |
| 2026-04-26 13:58 | 29.52985 | -98.47253 | 800 ft | 2 kts | 158° |
| 2026-04-26 13:59 | 29.52964 | -98.47246 | 799 ft | 4 kts | 166° |
| 2026-04-26 13:59 | 29.52951 | -98.47243 | 799 ft | 0 kts | 166° |